Time;durP1;ratioP1;P1;durP2;ratioP2;P2;SDS_P1;SDS_P2;PMS_P1;PMS_P2;Temp;Humidity;BMP_temperature;BMP_pressure;BME280_temperature;BME280_humidity;BME280_pressure;Samples;Min_cycle;Max_cycle;Signal;HPM_P1;HPM_P2
2021/05/15 00:01:04;;;;;;;23.57;22.27;;;12.50;75.30;;;;;;5029299;28;20479;-76
2021/05/15 00:03:31;;;;;;;24.53;22.90;;;12.50;74.30;;;;;;5031000;28;20493;-77
2021/05/15 00:05:58;;;;;;;22.50;21.50;;;12.50;73.70;;;;;;5029471;28;21048;-77
2021/05/15 00:08:25;;;;;;;22.80;21.70;;;12.50;73.50;;;;;;5029802;28;20557;-78
2021/05/15 00:10:51;;;;;;;22.53;21.43;;;12.50;73.70;;;;;;5029481;28;20555;-76
2021/05/15 00:13:18;;;;;;;23.10;21.90;;;12.50;73.60;;;;;;5028253;28;20586;-77
2021/05/15 00:15:45;;;;;;;23.67;22.27;;;12.50;73.70;;;;;;5026458;28;20459;-77
2021/05/15 00:18:12;;;;;;;22.77;21.60;;;12.50;73.50;;;;;;5028995;28;20486;-78
2021/05/15 00:20:39;;;;;;;23.13;21.83;;;12.40;73.70;;;;;;5028637;28;20470;-77
2021/05/15 00:23:06;;;;;;;22.80;21.60;;;12.40;73.60;;;;;;5031546;28;21013;-77
2021/05/15 00:25:32;;;;;;;23.13;21.83;;;12.40;73.60;;;;;;5027628;28;20491;-77
2021/05/15 00:27:59;;;;;;;22.33;21.00;;;12.40;73.70;;;;;;5028999;28;20506;-77
2021/05/15 00:30:25;;;;;;;23.80;22.30;;;12.30;73.90;;;;;;5030442;28;20459;-77
2021/05/15 00:32:52;;;;;;;23.40;22.10;;;12.20;74.10;;;;;;5027228;28;21057;-77
2021/05/15 00:35:19;;;;;;;23.00;21.73;;;12.20;74.20;;;;;;5027846;28;20456;-77
2021/05/15 00:37:46;;;;;;;23.33;22.13;;;12.10;74.40;;;;;;5028650;28;20559;-77
2021/05/15 00:40:13;;;;;;;23.47;21.57;;;12.00;74.70;;;;;;5029752;28;20466;-77
2021/05/15 00:42:40;;;;;;;21.97;20.97;;;12.00;74.70;;;;;;5028420;28;20479;-77
2021/05/15 00:45:09;;;;;;;23.40;22.20;;;12.00;74.50;;;;;;5026780;28;21309;-77
2021/05/15 00:47:35;;;;;;;22.80;21.70;;;12.00;74.50;;;;;;5029734;28;20456;-77
2021/05/15 00:50:02;;;;;;;22.17;21.10;;;12.00;74.40;;;;;;5012171;28;21006;-76
2021/05/15 00:52:34;;;;;;;22.63;21.40;;;11.90;74.50;;;;;;5028295;28;20571;-76
2021/05/15 00:55:02;;;;;;;22.67;21.57;;;12.00;74.30;;;;;;5018295;28;20467;-77
2021/05/15 00:57:28;;;;;;;23.67;22.47;;;11.90;74.10;;;;;;5028748;28;20455;-77
2021/05/15 00:59:55;;;;;;;23.10;21.90;;;11.90;74.10;;;;;;5027915;28;20559;-80
2021/05/15 01:02:21;;;;;;;22.83;21.43;;;11.90;74.10;;;;;;5030530;28;20566;-79
2021/05/15 01:04:48;;;;;;;23.40;22.20;;;11.80;74.30;;;;;;5028953;28;20856;-77
2021/05/15 01:07:14;;;;;;;23.23;22.13;;;11.80;74.20;;;;;;5027726;28;20456;-77
2021/05/15 01:09:42;;;;;;;23.37;22.13;;;11.80;74.10;;;;;;5028632;28;20486;-77
2021/05/15 01:12:10;;;;;;;23.60;22.30;;;11.70;74.10;;;;;;5029765;28;20849;-77
2021/05/15 01:14:38;;;;;;;22.10;21.10;;;11.80;74.10;;;;;;5028260;28;20551;-77
2021/05/15 01:17:07;;;;;;;22.70;21.60;;;11.70;74.20;;;;;;5028174;28;21079;-77
2021/05/15 01:19:33;;;;;;;22.90;21.70;;;11.60;74.50;;;;;;5030216;28;20460;-77
2021/05/15 01:22:03;;;;;;;22.10;21.00;;;11.60;74.40;;;;;;5028541;28;20574;-77
2021/05/15 01:24:30;;;;;;;23.33;21.87;;;11.70;75.10;;;;;;5028706;28;20475;-77
2021/05/15 01:26:56;;;;;;;24.17;22.70;;;11.60;74.90;;;;;;5027339;28;20551;-77
2021/05/15 01:29:23;;;;;;;23.70;22.30;;;11.60;74.80;;;;;;5026687;28;20478;-78
2021/05/15 01:31:49;;;;;;;23.80;22.40;;;11.70;74.60;;;;;;5026526;28;20538;-77
2021/05/15 01:34:16;;;;;;;22.77;21.60;;;11.70;74.40;;;;;;5027748;28;20865;-77
2021/05/15 01:36:43;;;;;;;22.67;21.50;;;11.70;74.60;;;;;;5028111;28;20534;-78
2021/05/15 01:39:12;;;;;;;24.13;22.30;;;11.70;74.60;;;;;;5025504;28;20811;-77
2021/05/15 01:41:38;;;;;;;24.17;22.67;;;11.50;74.90;;;;;;5027141;28;20484;-78
2021/05/15 01:44:05;;;;;;;22.80;21.47;;;11.50;75.00;;;;;;5027023;28;20490;-78
2021/05/15 01:46:32;;;;;;;22.30;21.20;;;11.40;75.30;;;;;;5026262;28;20462;-77
2021/05/15 01:48:59;;;;;;;31.33;24.10;;;11.30;75.70;;;;;;5027005;28;20466;-77
2021/05/15 01:51:25;;;;;;;22.50;21.40;;;11.30;76.00;;;;;;5025850;28;20553;-79
2021/05/15 01:53:53;;;;;;;22.70;21.60;;;11.30;76.00;;;;;;5028069;28;20852;-78
2021/05/15 01:56:22;;;;;;;22.70;21.50;;;11.40;75.70;;;;;;5024247;28;20464;-78
2021/05/15 01:58:48;;;;;;;22.50;21.40;;;11.30;75.80;;;;;;5026888;28;21031;-78
2021/05/15 02:01:15;;;;;;;22.83;21.73;;;11.30;75.90;;;;;;5025502;28;20494;-78
2021/05/15 02:03:44;;;;;;;23.27;22.10;;;11.30;75.80;;;;;;5028067;28;20543;-78
2021/05/15 02:06:11;;;;;;;23.27;22.03;;;11.30;75.90;;;;;;5027392;28;20551;-78
2021/05/15 02:08:38;;;;;;;22.83;21.53;;;11.30;76.10;;;;;;5028297;28;20531;-78
2021/05/15 02:11:04;;;;;;;22.60;21.50;;;11.20;76.30;;;;;;5026138;28;20476;-76
2021/05/15 02:13:32;;;;;;;22.07;21.07;;;11.10;76.40;;;;;;5028110;28;20967;-78
2021/05/15 02:16:00;;;;;;;22.40;21.20;;;11.20;76.50;;;;;;5025451;28;20837;-77
2021/05/15 02:18:27;;;;;;;22.60;21.40;;;11.20;76.30;;;;;;5026312;28;20456;-78
2021/05/15 02:20:54;;;;;;;21.50;20.47;;;11.20;76.60;;;;;;5027720;28;20223;-77
2021/05/15 02:23:22;;;;;;;22.27;21.17;;;11.10;76.50;;;;;;5027686;28;20517;-76
2021/05/15 02:25:49;;;;;;;22.60;21.40;;;11.10;76.40;;;;;;5025782;28;20492;-77
2021/05/15 02:28:16;;;;;;;22.00;20.98;;;11.10;76.70;;;;;;5027501;28;20197;-78
2021/05/15 02:30:44;;;;;;;22.83;21.60;;;11.20;76.40;;;;;;5026350;28;20201;-78
2021/05/15 02:33:11;;;;;;;22.90;21.80;;;11.10;76.90;;;;;;5026893;28;20315;-78
2021/05/15 02:35:37;;;;;;;23.92;22.30;;;11.10;77.20;;;;;;5025626;28;20193;-77
2021/05/15 02:38:05;;;;;;;22.40;21.30;;;10.90;77.50;;;;;;5032373;28;20481;-78
2021/05/15 02:40:32;;;;;;;22.65;21.50;;;11.00;77.40;;;;;;5029752;28;20671;-77
2021/05/15 02:42:58;;;;;;;23.33;21.92;;;10.90;77.70;;;;;;5031332;28;20205;-78
2021/05/15 02:45:25;;;;;;;22.77;21.48;;;10.90;77.80;;;;;;5029641;28;20730;-78
2021/05/15 02:47:53;;;;;;;22.45;21.35;;;10.90;78.10;;;;;;5031498;28;20197;-77
2021/05/15 02:50:22;;;;;;;21.60;20.60;;;10.90;77.80;;;;;;5029476;28;20220;-77
2021/05/15 02:52:48;;;;;;;22.52;21.42;;;10.90;77.90;;;;;;5030747;28;20515;-78
2021/05/15 02:55:17;;;;;;;22.52;21.45;;;10.90;77.80;;;;;;5030115;28;20671;-78
2021/05/15 02:57:44;;;;;;;22.92;21.70;;;10.90;77.90;;;;;;5028464;28;20208;-78
2021/05/15 03:00:13;;;;;;;22.73;21.65;;;10.90;78.20;;;;;;5031587;28;20452;-78
2021/05/15 03:02:39;;;;;;;22.98;21.88;;;10.90;78.20;;;;;;5030739;28;20270;-78
2021/05/15 03:05:10;;;;;;;22.05;20.85;;;10.90;78.20;;;;;;5029437;28;20343;-78
2021/05/15 03:07:36;;;;;;;23.63;22.40;;;11.00;77.70;;;;;;5031174;28;20713;-78
2021/05/15 03:10:04;;;;;;;22.58;21.58;;;10.90;77.70;;;;;;5030096;28;20436;-78
2021/05/15 03:12:31;;;;;;;22.30;21.20;;;10.90;77.80;;;;;;5030937;28;20213;-78
2021/05/15 03:14:58;;;;;;;22.52;21.42;;;10.80;78.00;;;;;;5030324;28;20189;-80
2021/05/15 03:17:24;;;;;;;22.55;21.35;;;10.80;78.00;;;;;;5031038;28;20723;-79
2021/05/15 03:19:53;;;;;;;22.63;21.10;;;10.70;78.40;;;;;;5031265;28;20682;-82
2021/05/15 03:22:21;;;;;;;74.30;29.88;;;10.70;78.40;;;;;;5032151;28;20648;-78
2021/05/15 03:24:48;;;;;;;22.35;21.10;;;10.70;78.40;;;;;;5030755;28;20275;-81
2021/05/15 03:27:14;;;;;;;23.30;22.00;;;10.70;78.30;;;;;;5029265;28;20200;-78
2021/05/15 03:29:41;;;;;;;22.30;21.20;;;10.50;78.90;;;;;;5031336;28;20304;-81
2021/05/15 03:32:08;;;;;;;24.85;23.25;;;10.50;79.40;;;;;;5029769;28;20228;-79
2021/05/15 03:34:34;;;;;;;22.67;21.58;;;10.50;79.30;;;;;;5029570;28;20677;-80
2021/05/15 03:37:01;;;;;;;24.13;22.90;;;10.50;79.20;;;;;;5029301;28;20202;-80
2021/05/15 03:39:28;;;;;;;24.40;22.85;;;10.40;79.40;;;;;;5030513;28;20344;-79
2021/05/15 03:41:55;;;;;;;23.42;21.98;;;10.40;79.40;;;;;;5029522;28;20221;-80
2021/05/15 03:44:21;;;;;;;23.13;22.00;;;10.60;79.30;;;;;;5025519;28;20248;-82
2021/05/15 03:46:49;;;;;;;23.33;22.05;;;10.60;79.40;;;;;;5023711;28;20289;-78
2021/05/15 03:49:15;;;;;;;22.95;21.85;;;10.60;79.40;;;;;;5031621;28;20284;-79
2021/05/15 03:51:42;;;;;;;22.65;21.05;;;10.50;79.60;;;;;;5031762;28;20221;-78
2021/05/15 03:54:08;;;;;;;28.85;22.05;;;10.60;79.40;;;;;;5030903;28;20280;-78
2021/05/15 03:56:35;;;;;;;23.40;21.60;;;10.60;79.40;;;;;;5029051;28;20204;-78
2021/05/15 03:59:02;;;;;;;23.42;21.85;;;10.60;79.10;;;;;;5028047;28;20286;-79
2021/05/15 04:01:28;;;;;;;26.15;24.23;;;10.60;79.40;;;;;;5030673;28;20228;-82
2021/05/15 04:03:55;;;;;;;23.33;21.77;;;10.50;79.60;;;;;;5031973;28;20198;-85
2021/05/15 04:06:21;;;;;;;22.40;21.00;;;10.60;79.70;;;;;;5026840;28;20288;-78
2021/05/15 04:08:47;;;;;;;21.35;20.25;;;10.60;79.30;;;;;;5030722;28;20185;-77
2021/05/15 04:11:14;;;;;;;24.25;22.50;;;10.70;79.30;;;;;;5029004;28;20213;-79
2021/05/15 04:13:46;;;;;;;21.42;20.33;;;10.70;79.20;;;;;;5032325;28;20196;-79
2021/05/15 04:16:16;;;;;;;22.05;20.95;;;10.80;78.90;;;;;;5032141;28;20236;-85
2021/05/15 04:18:44;;;;;;;22.38;20.95;;;10.80;78.90;;;;;;5041909;28;20197;-80
2021/05/15 04:21:10;;;;;;;23.58;21.90;;;10.80;78.80;;;;;;5037438;28;20289;-79
2021/05/15 04:23:37;;;;;;;22.08;20.92;;;10.80;79.00;;;;;;5033849;28;20276;-79
2021/05/15 04:26:04;;;;;;;22.50;21.30;;;10.90;78.80;;;;;;5027071;28;20639;-81
2021/05/15 04:28:31;;;;;;;21.73;20.73;;;11.00;78.60;;;;;;5030888;28;20221;-77
2021/05/15 04:30:59;;;;;;;22.30;21.20;;;11.00;78.20;;;;;;5030642;28;20730;-80
2021/05/15 04:33:25;;;;;;;23.38;22.17;;;11.10;77.90;;;;;;5029292;28;21018;-79
2021/05/15 04:35:53;;;;;;;22.03;20.93;;;11.10;78.10;;;;;;5027172;28;20625;-78
2021/05/15 04:38:19;;;;;;;22.17;21.15;;;11.10;78.00;;;;;;5025866;28;20937;-79
2021/05/15 04:40:46;;;;;;;23.50;22.37;;;11.20;77.90;;;;;;5027583;28;20199;-77
2021/05/15 04:43:14;;;;;;;23.07;21.87;;;11.30;78.40;;;;;;5029434;28;20440;-80
2021/05/15 04:45:41;;;;;;;23.07;21.63;;;11.40;77.80;;;;;;5030590;28;20484;-79
2021/05/15 04:48:09;;;;;;;25.20;22.90;;;11.40;77.40;;;;;;5032314;28;20444;-79
2021/05/15 04:50:35;;;;;;;23.63;22.43;;;11.40;77.00;;;;;;5031219;28;20538;-77
2021/05/15 04:53:02;;;;;;;23.57;22.37;;;11.50;76.80;;;;;;5030823;28;20460;-77
2021/05/15 04:55:28;;;;;;;23.13;22.00;;;11.70;75.90;;;;;;5027315;28;20555;-77
2021/05/15 04:57:57;;;;;;;26.03;24.73;;;11.90;75.20;;;;;;5029678;28;20958;-76
2021/05/15 05:00:24;;;;;;;22.83;21.63;;;11.80;75.10;;;;;;5025988;28;21003;-73
2021/05/15 05:02:51;;;;;;;23.37;22.20;;;11.90;74.40;;;;;;5028701;28;20484;-72
2021/05/15 05:05:18;;;;;;;23.57;22.30;;;12.00;74.10;;;;;;5028373;28;21084;-75
2021/05/15 05:07:45;;;;;;;25.53;23.90;;;12.10;73.90;;;;;;5023458;28;20460;-72
2021/05/15 05:10:12;;;;;;;24.40;23.10;;;12.20;73.70;;;;;;5027393;28;21014;-73
2021/05/15 05:12:38;;;;;;;24.10;22.80;;;12.40;73.00;;;;;;5028512;28;20514;-75
2021/05/15 05:15:06;;;;;;;24.87;23.57;;;12.50;73.10;;;;;;5027015;28;20540;-75
2021/05/15 05:17:32;;;;;;;25.67;24.43;;;12.60;72.30;;;;;;5026388;28;20679;-76
2021/05/15 05:19:59;;;;;;;25.03;23.73;;;12.80;71.60;;;;;;5027359;28;20539;-75
2021/05/15 05:22:26;;;;;;;24.10;22.90;;;13.00;71.50;;;;;;5027406;28;20594;-74
2021/05/15 05:24:53;;;;;;;25.13;23.93;;;13.30;70.40;;;;;;5022109;28;20559;-74
2021/05/15 05:27:21;;;;;;;23.97;22.77;;;13.30;70.90;;;;;;5020775;28;20535;-74
2021/05/15 05:29:47;;;;;;;28.17;24.87;;;13.40;70.20;;;;;;5019723;28;20479;-76
2021/05/15 05:32:14;;;;;;;25.53;24.07;;;13.50;69.50;;;;;;5021979;28;20518;-75
2021/05/15 05:34:40;;;;;;;23.83;22.43;;;13.60;69.10;;;;;;5022303;28;21954;-74
2021/05/15 05:37:07;;;;;;;24.50;23.20;;;13.80;68.70;;;;;;5027924;28;20460;-76
2021/05/15 05:39:36;;;;;;;26.90;25.13;;;13.90;68.10;;;;;;5028775;28;20961;-74
2021/05/15 05:42:03;;;;;;;25.10;23.70;;;14.00;68.00;;;;;;5027358;28;20566;-78
2021/05/15 05:44:30;;;;;;;26.13;24.73;;;14.10;67.60;;;;;;5025519;28;20503;-75
2021/05/15 05:46:56;;;;;;;26.20;24.70;;;14.20;67.60;;;;;;5022105;28;20522;-76
2021/05/15 05:49:22;;;;;;;24.27;23.10;;;14.20;67.40;;;;;;5019946;28;20559;-76
2021/05/15 05:51:50;;;;;;;24.00;22.67;;;14.40;67.30;;;;;;5026771;28;20475;-77
2021/05/15 05:54:16;;;;;;;24.13;22.90;;;14.30;67.10;;;;;;5025402;28;20455;-76
2021/05/15 05:56:44;;;;;;;23.37;21.93;;;14.50;66.80;;;;;;5026513;28;20456;-79
2021/05/15 05:59:10;;;;;;;23.93;22.73;;;14.70;65.90;;;;;;5024452;28;20448;-76
2021/05/15 06:01:38;;;;;;;24.10;22.90;;;14.70;65.60;;;;;;5027380;28;20475;-76
2021/05/15 06:04:05;;;;;;;24.17;22.97;;;14.80;65.60;;;;;;5028630;28;20459;-76
2021/05/15 06:06:36;;;;;;;24.00;22.73;;;14.90;65.70;;;;;;5025773;28;20464;-75
2021/05/15 06:09:03;;;;;;;23.93;22.73;;;15.00;65.10;;;;;;5029119;28;20452;-74
2021/05/15 06:11:30;;;;;;;25.20;23.80;;;15.00;64.50;;;;;;5026929;28;20476;-76
2021/05/15 06:13:57;;;;;;;24.53;23.23;;;15.00;64.50;;;;;;5028679;28;20491;-75
2021/05/15 06:16:23;;;;;;;25.50;24.20;;;15.00;64.50;;;;;;5024934;28;20941;-73
2021/05/15 06:18:50;;;;;;;24.77;23.20;;;14.90;64.80;;;;;;5028337;28;20514;-74
2021/05/15 06:21:16;;;;;;;23.80;22.60;;;14.80;65.10;;;;;;5028357;28;21008;-76
2021/05/15 06:23:43;;;;;;;24.93;23.63;;;14.80;64.80;;;;;;5029461;28;20498;-75
2021/05/15 06:26:10;;;;;;;25.67;24.37;;;14.80;65.00;;;;;;5025970;28;20498;-76
2021/05/15 06:28:37;;;;;;;25.90;24.50;;;14.90;64.30;;;;;;5029330;28;20483;-75
2021/05/15 06:31:05;;;;;;;23.53;22.33;;;14.90;64.60;;;;;;5027650;28;20476;-73
2021/05/15 06:33:32;;;;;;;24.67;23.47;;;14.90;64.60;;;;;;5029236;28;20451;-73
2021/05/15 06:35:59;;;;;;;24.10;22.70;;;15.00;64.60;;;;;;5024250;28;21124;-73
2021/05/15 06:38:26;;;;;;;24.20;23.00;;;15.20;64.20;;;;;;5027106;28;20470;-74
2021/05/15 06:40:52;;;;;;;25.50;24.20;;;15.50;63.40;;;;;;5019710;28;20460;-74
2021/05/15 06:43:18;;;;;;;25.07;23.80;;;15.60;62.90;;;;;;5026679;28;20530;-74
2021/05/15 06:45:45;;;;;;;23.50;22.30;;;15.60;63.10;;;;;;5026088;28;21237;-74
2021/05/15 06:48:15;;;;;;;23.20;22.00;;;15.90;62.50;;;;;;5027824;28;20803;-74
2021/05/15 06:50:42;;;;;;;25.17;23.47;;;16.00;61.90;;;;;;5023376;28;20472;-72
2021/05/15 06:53:09;;;;;;;24.37;23.03;;;16.20;61.70;;;;;;5017585;28;20455;-73
2021/05/15 06:55:35;;;;;;;30.33;26.57;;;16.40;60.80;;;;;;5027051;28;20463;-73
2021/05/15 06:58:04;;;;;;;24.87;23.57;;;16.60;60.30;;;;;;5027428;28;21214;-74
2021/05/15 07:00:32;;;;;;;26.90;25.40;;;16.80;60.20;;;;;;5017193;28;20455;-74
2021/05/15 07:02:59;;;;;;;24.20;22.90;;;17.00;59.40;;;;;;5026931;28;20535;-74
2021/05/15 07:05:27;;;;;;;24.60;23.30;;;17.10;59.00;;;;;;5018164;28;20559;-74
2021/05/15 07:07:53;;;;;;;23.73;22.43;;;17.30;58.40;;;;;;5024095;28;20992;-73
2021/05/15 07:10:21;;;;;;;24.67;23.37;;;17.40;58.80;;;;;;5019230;28;20579;-78
2021/05/15 07:12:48;;;;;;;25.17;23.87;;;17.30;58.30;;;;;;5026235;28;20981;-75
2021/05/15 07:15:15;;;;;;;24.00;22.70;;;17.30;58.40;;;;;;5025822;28;20535;-75
2021/05/15 07:17:41;;;;;;;24.17;22.90;;;17.30;58.00;;;;;;5024209;28;21173;-75
2021/05/15 07:20:08;;;;;;;24.87;23.07;;;17.30;58.00;;;;;;5022471;28;20452;-74
2021/05/15 07:22:36;;;;;;;24.23;22.93;;;17.40;57.60;;;;;;5029430;28;20557;-77
2021/05/15 07:25:03;;;;;;;24.43;23.03;;;17.50;58.10;;;;;;5026750;28;20534;-76
2021/05/15 07:27:29;;;;;;;24.60;23.20;;;17.60;57.70;;;;;;5030022;28;20463;-76
2021/05/15 07:29:56;;;;;;;26.20;24.50;;;17.50;58.00;;;;;;5031945;28;20949;-75
2021/05/15 07:32:24;;;;;;;24.17;22.77;;;17.50;58.60;;;;;;5018428;28;20548;-79
2021/05/15 07:34:51;;;;;;;27.70;25.23;;;17.50;57.60;;;;;;5030433;28;20463;-76
2021/05/15 07:37:17;;;;;;;26.57;25.17;;;17.50;57.50;;;;;;5030070;28;20499;-74
2021/05/15 07:39:46;;;;;;;24.77;23.43;;;17.50;57.20;;;;;;5030354;28;20459;-72
2021/05/15 07:42:13;;;;;;;24.70;23.03;;;17.40;56.70;;;;;;5029028;28;21112;-72
2021/05/15 07:44:39;;;;;;;24.67;23.03;;;17.30;57.50;;;;;;5027358;28;20476;-75
2021/05/15 07:47:06;;;;;;;24.10;22.60;;;17.30;57.60;;;;;;5028741;28;20564;-76
2021/05/15 07:49:32;;;;;;;26.07;23.67;;;17.30;57.50;;;;;;5029590;28;20468;-76
2021/05/15 07:51:59;;;;;;;68.90;27.30;;;17.60;58.00;;;;;;5026478;28;21163;-76
2021/05/15 07:54:25;;;;;;;25.00;23.60;;;17.80;56.70;;;;;;5030627;28;20480;-75
2021/05/15 07:56:54;;;;;;;26.10;23.93;;;18.10;55.90;;;;;;5031578;28;20467;-76
2021/05/15 07:59:21;;;;;;;28.97;26.37;;;18.20;55.90;;;;;;5034082;28;20459;-78
2021/05/15 08:01:47;;;;;;;23.77;22.40;;;18.40;56.00;;;;;;5039598;28;20641;-77
2021/05/15 08:04:15;;;;;;;28.27;25.97;;;18.30;55.60;;;;;;5032357;28;20605;-76
2021/05/15 08:06:42;;;;;;;23.60;22.30;;;18.30;56.10;;;;;;5016296;28;20468;-76
2021/05/15 08:09:08;;;;;;;25.30;23.60;;;18.20;55.40;;;;;;5026834;28;20898;-75
2021/05/15 08:11:35;;;;;;;23.40;22.20;;;17.90;55.50;;;;;;5029941;28;20555;-77
2021/05/15 08:14:04;;;;;;;24.30;22.43;;;17.90;55.80;;;;;;5031991;28;20817;-77
2021/05/15 08:16:33;;;;;;;23.90;22.30;;;17.80;56.20;;;;;;5030955;28;20456;-78
2021/05/15 08:19:00;;;;;;;23.23;21.93;;;17.80;55.80;;;;;;5031280;28;20444;-76
2021/05/15 08:21:26;;;;;;;23.47;22.07;;;17.90;56.10;;;;;;5026137;28;20622;-76
2021/05/15 08:23:53;;;;;;;23.13;21.93;;;17.80;56.10;;;;;;5025226;28;20459;-77
2021/05/15 08:26:20;;;;;;;23.63;22.23;;;17.70;56.20;;;;;;5027304;28;20474;-77
2021/05/15 08:28:49;;;;;;;25.70;23.30;;;17.80;56.40;;;;;;5023870;28;20551;-76
2021/05/15 08:31:17;;;;;;;23.97;22.40;;;17.70;55.90;;;;;;5027063;28;21013;-76
2021/05/15 08:33:43;;;;;;;23.80;22.60;;;17.50;55.90;;;;;;5024096;28;20737;-76
2021/05/15 08:36:10;;;;;;;24.63;23.13;;;17.30;56.20;;;;;;5019790;28;20872;-76
2021/05/15 08:38:37;;;;;;;24.30;22.97;;;17.40;56.60;;;;;;5026102;28;20458;-77
2021/05/15 08:41:04;;;;;;;26.70;25.20;;;17.30;56.80;;;;;;5024710;28;20495;-76
2021/05/15 08:43:33;;;;;;;24.77;23.47;;;17.40;57.30;;;;;;5027052;28;20459;-76
2021/05/15 08:46:01;;;;;;;34.70;26.03;;;17.50;57.50;;;;;;5027723;28;20486;-77
2021/05/15 08:48:31;;;;;;;25.50;22.97;;;17.60;56.70;;;;;;5029151;28;20524;-76
2021/05/15 08:50:59;;;;;;;25.27;23.50;;;17.70;58.60;;;;;;5028779;28;21052;-79
2021/05/15 08:53:25;;;;;;;26.77;24.40;;;17.90;57.00;;;;;;5027722;28;20474;-77
2021/05/15 08:55:52;;;;;;;24.97;23.47;;;18.10;56.00;;;;;;5027635;28;20516;-77
2021/05/15 08:58:20;;;;;;;24.40;23.00;;;18.20;55.90;;;;;;5029526;28;20508;-78
2021/05/15 09:00:49;;;;;;;24.83;23.40;;;18.30;55.70;;;;;;5027992;28;20483;-78
2021/05/15 09:03:17;;;;;;;25.50;24.10;;;18.40;55.10;;;;;;5029643;28;20466;-76
2021/05/15 09:05:47;;;;;;;25.57;23.57;;;18.50;55.40;;;;;;5026778;28;20507;-77
2021/05/15 09:08:15;;;;;;;26.07;23.93;;;18.50;55.00;;;;;;5019002;28;20459;-77
2021/05/15 09:10:43;;;;;;;27.53;25.43;;;18.70;54.30;;;;;;5026781;28;20942;-77
2021/05/15 09:13:11;;;;;;;23.90;22.50;;;18.80;53.40;;;;;;5029261;28;20551;-77
2021/05/15 09:15:40;;;;;;;24.70;22.83;;;18.70;55.20;;;;;;5027430;28;20483;-77
2021/05/15 09:18:07;;;;;;;23.47;22.27;;;18.80;53.10;;;;;;5028695;28;20456;-78
2021/05/15 09:20:34;;;;;;;23.33;22.13;;;18.70;53.20;;;;;;5027524;28;20456;-76
2021/05/15 09:23:12;;;;;;;23.70;22.40;;;18.90;53.00;;;;;;5029081;28;20563;-76
2021/05/15 09:25:39;;;;;;;24.27;22.77;;;18.90;53.00;;;;;;5025598;28;20570;-78
2021/05/15 09:28:05;;;;;;;23.47;22.17;;;19.00;53.10;;;;;;5028980;28;20496;-76
2021/05/15 09:30:32;;;;;;;23.43;22.23;;;19.30;52.70;;;;;;5026887;28;20466;-76
2021/05/15 09:33:09;;;;;;;26.20;24.80;;;19.50;51.90;;;;;;5028093;28;20464;-78
2021/05/15 09:35:36;;;;;;;24.37;23.03;;;19.50;52.30;;;;;;5020302;28;20995;-76
2021/05/15 09:38:02;;;;;;;24.20;23.00;;;19.70;51.80;;;;;;5026920;28;20464;-77
2021/05/15 09:40:29;;;;;;;24.50;23.13;;;19.80;51.10;;;;;;5027211;28;20829;-75
2021/05/15 09:42:58;;;;;;;24.73;23.23;;;19.60;51.50;;;;;;5025286;28;20563;-75
2021/05/15 09:45:26;;;;;;;28.10;26.67;;;19.90;51.90;;;;;;5025997;28;20486;-75
2021/05/15 09:47:54;;;;;;;24.60;23.30;;;20.10;50.10;;;;;;5028589;28;20466;-75
2021/05/15 09:50:23;;;;;;;23.30;22.10;;;19.90;50.40;;;;;;5023537;28;20483;-76
2021/05/15 09:52:49;;;;;;;24.90;23.60;;;19.30;51.50;;;;;;5027351;28;20570;-75
2021/05/15 09:55:16;;;;;;;24.77;23.47;;;19.20;51.90;;;;;;5027467;28;20488;-77
2021/05/15 09:57:55;;;;;;;23.10;21.90;;;19.30;51.70;;;;;;5027076;28;20455;-76
2021/05/15 10:00:22;;;;;;;25.87;24.47;;;19.70;50.70;;;;;;5027303;28;20456;-79
2021/05/15 10:02:55;;;;;;;24.20;22.90;;;19.50;51.40;;;;;;5027449;28;20841;-82
2021/05/15 10:05:23;;;;;;;22.90;21.70;;;19.70;50.90;;;;;;5024680;28;20483;-83
2021/05/15 10:07:49;;;;;;;25.60;23.43;;;19.60;51.00;;;;;;5027573;28;20452;-79
2021/05/15 10:10:16;;;;;;;24.47;23.03;;;19.50;51.50;;;;;;5023675;28;20554;-77
2021/05/15 10:12:44;;;;;;;23.33;22.13;;;19.70;50.90;;;;;;5027482;28;20888;-75
2021/05/15 10:15:12;;;;;;;23.87;22.67;;;19.90;50.50;;;;;;5025653;28;20452;-76
2021/05/15 10:17:38;;;;;;;24.43;23.23;;;19.90;50.20;;;;;;5026888;28;20548;-75
2021/05/15 10:20:07;;;;;;;24.43;23.07;;;20.00;50.40;;;;;;5013869;28;20946;-75
2021/05/15 10:22:38;;;;;;;30.23;24.63;;;20.10;49.70;;;;;;5024723;28;21157;-75
2021/05/15 10:25:11;;;;;;;43.17;25.23;;;20.10;49.30;;;;;;5026074;28;20487;-75
2021/05/15 10:27:38;;;;;;;25.17;22.97;;;19.80;50.00;;;;;;5027714;28;20551;-74
2021/05/15 10:30:18;;;;;;;22.90;21.70;;;19.60;51.10;;;;;;5026981;28;21169;-74
2021/05/15 10:32:58;;;;;;;24.33;23.03;;;19.60;51.10;;;;;;5027871;28;20864;-73
2021/05/15 10:35:29;;;;;;;23.37;22.10;;;19.60;50.60;;;;;;5024081;28;20461;-74
2021/05/15 10:38:07;;;;;;;25.33;23.93;;;19.90;51.10;;;;;;5028447;28;20451;-73
2021/05/15 10:40:49;;;;;;;24.40;23.10;;;20.10;50.20;;;;;;5026726;28;20456;-76
2021/05/15 10:43:30;;;;;;;23.90;22.40;;;20.40;48.90;;;;;;5028065;28;20460;-74
2021/05/15 10:45:58;;;;;;;24.30;22.80;;;20.50;47.10;;;;;;5025583;28;20570;-74
2021/05/15 10:48:27;;;;;;;23.60;22.37;;;20.90;48.00;;;;;;5027050;28;20467;-74
2021/05/15 10:50:55;;;;;;;25.43;24.03;;;21.10;46.60;;;;;;5026719;28;20498;-75
2021/05/15 10:53:24;;;;;;;25.20;23.70;;;20.90;46.80;;;;;;5027712;28;21020;-75
2021/05/15 10:56:03;;;;;;;25.03;23.50;;;20.80;47.60;;;;;;5026239;28;20456;-76
2021/05/15 10:58:41;;;;;;;24.23;22.93;;;20.70;47.70;;;;;;5027757;28;20461;-74
2021/05/15 11:01:13;;;;;;;23.70;22.20;;;20.60;48.40;;;;;;5037854;28;20462;-78
2021/05/15 12:18:05;;;;;;;25.23;23.53;;;20.40;47.80;;;;;;5100924;27;20587;-87
2021/05/15 12:20:40;;;;;;;25.20;23.70;;;20.80;48.00;;;;;;5099793;28;20492;-84
2021/05/15 12:23:11;;;;;;;26.73;25.33;;;21.10;44.70;;;;;;5083540;28;20484;-84
2021/05/15 12:25:41;;;;;;;24.80;23.40;;;21.00;44.10;;;;;;5081362;28;20494;-81
2021/05/15 12:28:24;;;;;;;25.00;23.70;;;21.00;45.50;;;;;;5090869;28;20453;-81
2021/05/15 12:30:51;;;;;;;26.23;24.33;;;21.10;44.30;;;;;;5078309;28;20525;-85
2021/05/15 12:33:20;;;;;;;24.70;22.90;;;21.30;44.30;;;;;;5091075;28;20445;-79
2021/05/15 12:36:07;;;;;;;25.00;23.60;;;21.60;44.70;;;;;;5069351;28;20493;-82
2021/05/15 12:38:45;;;;;;;24.97;23.67;;;21.80;44.30;;;;;;5085533;28;20556;-80
2021/05/15 12:41:13;;;;;;;25.33;23.67;;;21.80;44.90;;;;;;5078537;28;20485;-80
2021/05/15 12:43:42;;;;;;;24.33;23.03;;;22.00;44.70;;;;;;5087368;28;21363;-79
2021/05/15 12:46:10;;;;;;;24.33;22.83;;;22.20;43.70;;;;;;5072832;28;20458;-78
2021/05/15 12:48:39;;;;;;;24.70;23.30;;;22.20;43.40;;;;;;5078607;28;21045;-80
2021/05/15 12:51:08;;;;;;;25.20;23.80;;;21.90;43.80;;;;;;5083875;28;20943;-79
2021/05/15 12:53:34;;;;;;;24.80;23.50;;;22.00;44.90;;;;;;5092722;28;20519;-79
2021/05/15 12:56:01;;;;;;;24.97;23.67;;;22.00;44.60;;;;;;5081143;28;20478;-79
2021/05/15 12:58:28;;;;;;;24.63;23.23;;;21.90;44.40;;;;;;5081426;28;20457;-80
2021/05/15 13:00:59;;;;;;;25.00;23.60;;;22.00;44.10;;;;;;5070277;28;20476;-81
2021/05/15 13:03:28;;;;;;;26.30;24.70;;;21.80;44.20;;;;;;5073053;28;20462;-80
2021/05/15 13:05:56;;;;;;;24.30;22.90;;;21.90;44.20;;;;;;5074728;28;20469;-80
2021/05/15 13:08:29;;;;;;;25.17;23.77;;;21.70;43.90;;;;;;5066787;28;20843;-80
2021/05/15 13:10:56;;;;;;;25.73;24.23;;;21.60;43.50;;;;;;5077555;28;20477;-79
2021/05/15 13:13:23;;;;;;;26.13;24.30;;;21.30;44.40;;;;;;5081687;28;20572;-80
2021/05/15 13:15:49;;;;;;;24.90;23.40;;;21.20;44.20;;;;;;5079957;28;20457;-81
2021/05/15 13:18:18;;;;;;;24.50;23.00;;;21.10;43.70;;;;;;5073683;28;20512;-80
2021/05/15 13:20:45;;;;;;;28.73;24.40;;;20.90;44.00;;;;;;5077181;28;20457;-80
2021/05/15 13:23:12;;;;;;;26.03;24.17;;;20.70;44.60;;;;;;5076455;28;20479;-76
2021/05/15 13:25:39;;;;;;;26.97;25.40;;;20.40;44.60;;;;;;5077880;28;20453;-76
2021/05/15 13:28:05;;;;;;;24.43;23.03;;;20.20;45.40;;;;;;5073260;28;21013;-80
2021/05/15 13:30:33;;;;;;;27.80;26.40;;;19.90;45.70;;;;;;5061200;28;20457;-80
2021/05/15 13:32:59;;;;;;;24.03;22.83;;;19.90;45.60;;;;;;5074965;28;20465;-79
2021/05/15 13:35:26;;;;;;;23.80;22.30;;;19.80;46.40;;;;;;5057568;28;20541;-79
2021/05/15 13:37:52;;;;;;;26.90;24.90;;;19.70;46.90;;;;;;5069496;28;20509;-79
2021/05/15 13:40:20;;;;;;;24.27;22.97;;;19.50;46.80;;;;;;5070295;28;20607;-80
2021/05/15 13:42:47;;;;;;;24.10;22.70;;;19.40;47.90;;;;;;5060462;28;20510;-79
2021/05/15 13:45:13;;;;;;;24.50;23.13;;;19.40;47.70;;;;;;5064402;28;20609;-79